sensor_id;sensor_type;location;lat;lon;timestamp;P1;durP1;ratioP1;P2;durP2;ratioP2
23044;SDS011;11690;51.716;23.066;2023-03-01T00:01:39;74.67;;;35.30;;
23044;SDS011;11690;51.716;23.066;2023-03-01T00:04:07;74.40;;;33.73;;
23044;SDS011;11690;51.716;23.066;2023-03-01T00:06:35;68.40;;;31.97;;
23044;SDS011;11690;51.716;23.066;2023-03-01T00:09:02;68.97;;;31.50;;
23044;SDS011;11690;51.716;23.066;2023-03-01T00:14:25;60.90;;;30.87;;
23044;SDS011;11690;51.716;23.066;2023-03-01T00:16:52;82.13;;;37.93;;
23044;SDS011;11690;51.716;23.066;2023-03-01T00:19:20;77.03;;;35.83;;
23044;SDS011;11690;51.716;23.066;2023-03-01T00:21:48;69.27;;;33.37;;
23044;SDS011;11690;51.716;23.066;2023-03-01T00:24:15;68.23;;;31.33;;
23044;SDS011;11690;51.716;23.066;2023-03-01T00:26:43;64.93;;;30.57;;
23044;SDS011;11690;51.716;23.066;2023-03-01T00:29:10;66.10;;;31.70;;
23044;SDS011;11690;51.716;23.066;2023-03-01T00:31:37;58.83;;;30.47;;
23044;SDS011;11690;51.716;23.066;2023-03-01T00:34:05;64.40;;;31.57;;
23044;SDS011;11690;51.716;23.066;2023-03-01T00:36:33;67.30;;;31.93;;
23044;SDS011;11690;51.716;23.066;2023-03-01T00:39:02;71.20;;;32.80;;
23044;SDS011;11690;51.716;23.066;2023-03-01T00:41:31;64.40;;;32.50;;
23044;SDS011;11690;51.716;23.066;2023-03-01T00:43:58;70.43;;;32.40;;
23044;SDS011;11690;51.716;23.066;2023-03-01T00:46:25;70.37;;;32.30;;
23044;SDS011;11690;51.716;23.066;2023-03-01T00:48:54;76.77;;;36.37;;
23044;SDS011;11690;51.716;23.066;2023-03-01T00:51:22;71.67;;;34.73;;
23044;SDS011;11690;51.716;23.066;2023-03-01T00:53:52;71.37;;;31.53;;
23044;SDS011;11690;51.716;23.066;2023-03-01T00:56:20;64.40;;;29.67;;
23044;SDS011;11690;51.716;23.066;2023-03-01T00:58:48;64.13;;;31.13;;
23044;SDS011;11690;51.716;23.066;2023-03-01T01:01:16;63.57;;;29.63;;
23044;SDS011;11690;51.716;23.066;2023-03-01T01:03:56;61.27;;;29.07;;
23044;SDS011;11690;51.716;23.066;2023-03-01T01:06:26;64.57;;;29.53;;
23044;SDS011;11690;51.716;23.066;2023-03-01T01:08:55;57.43;;;27.57;;
23044;SDS011;11690;51.716;23.066;2023-03-01T01:11:24;65.57;;;30.43;;
23044;SDS011;11690;51.716;23.066;2023-03-01T01:13:52;65.60;;;31.47;;
23044;SDS011;11690;51.716;23.066;2023-03-01T01:16:20;70.17;;;31.83;;
23044;SDS011;11690;51.716;23.066;2023-03-01T01:18:50;72.90;;;34.33;;
23044;SDS011;11690;51.716;23.066;2023-03-01T01:21:18;68.63;;;33.07;;
23044;SDS011;11690;51.716;23.066;2023-03-01T01:23:47;65.17;;;31.13;;
23044;SDS011;11690;51.716;23.066;2023-03-01T01:26:21;58.17;;;30.10;;
23044;SDS011;11690;51.716;23.066;2023-03-01T01:28:50;67.03;;;31.60;;
23044;SDS011;11690;51.716;23.066;2023-03-01T01:31:18;70.83;;;32.43;;
23044;SDS011;11690;51.716;23.066;2023-03-01T01:33:45;65.73;;;31.67;;
23044;SDS011;11690;51.716;23.066;2023-03-01T01:36:13;63.17;;;31.43;;
23044;SDS011;11690;51.716;23.066;2023-03-01T01:38:40;62.10;;;29.43;;
23044;SDS011;11690;51.716;23.066;2023-03-01T01:41:09;67.47;;;31.87;;
23044;SDS011;11690;51.716;23.066;2023-03-01T01:43:46;69.63;;;33.37;;
23044;SDS011;11690;51.716;23.066;2023-03-01T01:46:25;68.10;;;32.20;;
23044;SDS011;11690;51.716;23.066;2023-03-01T01:49:04;74.97;;;38.13;;
23044;SDS011;11690;51.716;23.066;2023-03-01T01:51:35;63.87;;;32.93;;
23044;SDS011;11690;51.716;23.066;2023-03-01T01:54:20;60.10;;;29.00;;
23044;SDS011;11690;51.716;23.066;2023-03-01T01:57:07;61.40;;;30.57;;
23044;SDS011;11690;51.716;23.066;2023-03-01T01:59:36;61.83;;;29.30;;
23044;SDS011;11690;51.716;23.066;2023-03-01T02:02:03;74.43;;;31.07;;
23044;SDS011;11690;51.716;23.066;2023-03-01T02:04:31;62.33;;;30.27;;
23044;SDS011;11690;51.716;23.066;2023-03-01T02:07:03;64.20;;;30.70;;
23044;SDS011;11690;51.716;23.066;2023-03-01T02:09:34;54.73;;;26.33;;
23044;SDS011;11690;51.716;23.066;2023-03-01T02:12:02;61.10;;;30.20;;
23044;SDS011;11690;51.716;23.066;2023-03-01T02:14:31;59.07;;;27.97;;
23044;SDS011;11690;51.716;23.066;2023-03-01T02:16:58;56.40;;;27.50;;
23044;SDS011;11690;51.716;23.066;2023-03-01T02:19:44;67.63;;;30.70;;
23044;SDS011;11690;51.716;23.066;2023-03-01T02:22:39;56.13;;;28.67;;
23044;SDS011;11690;51.716;23.066;2023-03-01T02:27:49;65.93;;;30.57;;
23044;SDS011;11690;51.716;23.066;2023-03-01T02:30:20;65.10;;;28.03;;
23044;SDS011;11690;51.716;23.066;2023-03-01T02:32:48;58.73;;;28.87;;
23044;SDS011;11690;51.716;23.066;2023-03-01T02:35:16;57.43;;;27.73;;
23044;SDS011;11690;51.716;23.066;2023-03-01T02:37:44;68.33;;;29.27;;
23044;SDS011;11690;51.716;23.066;2023-03-01T02:40:13;77.87;;;33.13;;
23044;SDS011;11690;51.716;23.066;2023-03-01T02:42:50;59.60;;;30.00;;
23044;SDS011;11690;51.716;23.066;2023-03-01T02:45:20;62.03;;;27.73;;
23044;SDS011;11690;51.716;23.066;2023-03-01T02:47:47;62.77;;;27.03;;
23044;SDS011;11690;51.716;23.066;2023-03-01T02:52:57;66.83;;;37.87;;
23044;SDS011;11690;51.716;23.066;2023-03-01T02:55:29;56.67;;;27.90;;
23044;SDS011;11690;51.716;23.066;2023-03-01T02:57:56;55.30;;;27.13;;
23044;SDS011;11690;51.716;23.066;2023-03-01T03:00:28;60.00;;;26.87;;
23044;SDS011;11690;51.716;23.066;2023-03-01T03:02:59;57.87;;;26.83;;
23044;SDS011;11690;51.716;23.066;2023-03-01T03:05:29;58.10;;;28.47;;
23044;SDS011;11690;51.716;23.066;2023-03-01T03:07:58;54.80;;;25.93;;
23044;SDS011;11690;51.716;23.066;2023-03-01T03:10:27;58.33;;;27.70;;
23044;SDS011;11690;51.716;23.066;2023-03-01T03:13:03;66.17;;;29.50;;
23044;SDS011;11690;51.716;23.066;2023-03-01T03:15:32;57.87;;;29.07;;
23044;SDS011;11690;51.716;23.066;2023-03-01T03:18:03;60.30;;;28.30;;
23044;SDS011;11690;51.716;23.066;2023-03-01T03:20:34;66.90;;;29.03;;
23044;SDS011;11690;51.716;23.066;2023-03-01T03:23:01;65.13;;;33.70;;
23044;SDS011;11690;51.716;23.066;2023-03-01T03:25:28;59.13;;;28.63;;
23044;SDS011;11690;51.716;23.066;2023-03-01T03:27:56;55.70;;;27.27;;
23044;SDS011;11690;51.716;23.066;2023-03-01T03:30:25;56.33;;;25.90;;
23044;SDS011;11690;51.716;23.066;2023-03-01T03:32:55;63.27;;;27.30;;
23044;SDS011;11690;51.716;23.066;2023-03-01T03:35:28;57.97;;;27.43;;
23044;SDS011;11690;51.716;23.066;2023-03-01T03:37:59;56.37;;;27.13;;
23044;SDS011;11690;51.716;23.066;2023-03-01T03:43:09;54.37;;;27.20;;
23044;SDS011;11690;51.716;23.066;2023-03-01T03:45:39;55.60;;;27.87;;
23044;SDS011;11690;51.716;23.066;2023-03-01T03:48:07;59.67;;;28.37;;
23044;SDS011;11690;51.716;23.066;2023-03-01T03:50:36;64.23;;;29.30;;
23044;SDS011;11690;51.716;23.066;2023-03-01T03:53:06;82.10;;;39.50;;
23044;SDS011;11690;51.716;23.066;2023-03-01T03:55:35;73.67;;;39.00;;
23044;SDS011;11690;51.716;23.066;2023-03-01T03:58:07;63.77;;;29.93;;
23044;SDS011;11690;51.716;23.066;2023-03-01T04:00:39;56.93;;;27.67;;
23044;SDS011;11690;51.716;23.066;2023-03-01T04:03:08;62.07;;;28.63;;
23044;SDS011;11690;51.716;23.066;2023-03-01T04:05:36;64.53;;;28.50;;
23044;SDS011;11690;51.716;23.066;2023-03-01T04:08:03;57.87;;;26.63;;
23044;SDS011;11690;51.716;23.066;2023-03-01T04:10:35;59.20;;;27.67;;
23044;SDS011;11690;51.716;23.066;2023-03-01T04:13:04;58.50;;;27.40;;
23044;SDS011;11690;51.716;23.066;2023-03-01T04:15:33;59.73;;;27.80;;
23044;SDS011;11690;51.716;23.066;2023-03-01T04:18:00;55.40;;;26.63;;
23044;SDS011;11690;51.716;23.066;2023-03-01T04:20:29;49.83;;;26.43;;
23044;SDS011;11690;51.716;23.066;2023-03-01T04:22:58;53.90;;;25.77;;
23044;SDS011;11690;51.716;23.066;2023-03-01T04:25:40;58.20;;;28.73;;
23044;SDS011;11690;51.716;23.066;2023-03-01T04:28:09;60.23;;;29.93;;
23044;SDS011;11690;51.716;23.066;2023-03-01T04:30:37;61.53;;;27.87;;
23044;SDS011;11690;51.716;23.066;2023-03-01T04:33:05;61.73;;;28.50;;
23044;SDS011;11690;51.716;23.066;2023-03-01T04:35:34;57.60;;;27.67;;
23044;SDS011;11690;51.716;23.066;2023-03-01T04:38:01;56.33;;;28.13;;
23044;SDS011;11690;51.716;23.066;2023-03-01T04:40:29;67.00;;;29.13;;
23044;SDS011;11690;51.716;23.066;2023-03-01T04:42:56;58.67;;;28.53;;
23044;SDS011;11690;51.716;23.066;2023-03-01T04:45:24;61.93;;;28.63;;
23044;SDS011;11690;51.716;23.066;2023-03-01T04:47:51;68.57;;;31.67;;
23044;SDS011;11690;51.716;23.066;2023-03-01T04:50:21;56.47;;;27.07;;
23044;SDS011;11690;51.716;23.066;2023-03-01T04:52:50;61.27;;;27.30;;
23044;SDS011;11690;51.716;23.066;2023-03-01T04:55:17;91.03;;;35.80;;
23044;SDS011;11690;51.716;23.066;2023-03-01T04:57:44;60.50;;;31.20;;
23044;SDS011;11690;51.716;23.066;2023-03-01T05:00:12;58.93;;;26.83;;
23044;SDS011;11690;51.716;23.066;2023-03-01T05:05:21;57.47;;;27.10;;
23044;SDS011;11690;51.716;23.066;2023-03-01T05:07:53;56.50;;;26.33;;
23044;SDS011;11690;51.716;23.066;2023-03-01T05:10:21;59.07;;;27.80;;
23044;SDS011;11690;51.716;23.066;2023-03-01T05:12:48;59.53;;;27.20;;
23044;SDS011;11690;51.716;23.066;2023-03-01T05:15:16;56.60;;;28.47;;
23044;SDS011;11690;51.716;23.066;2023-03-01T05:17:43;53.30;;;27.20;;
23044;SDS011;11690;51.716;23.066;2023-03-01T05:20:10;57.13;;;27.40;;
23044;SDS011;11690;51.716;23.066;2023-03-01T05:22:37;72.37;;;29.77;;
23044;SDS011;11690;51.716;23.066;2023-03-01T05:25:05;62.07;;;30.30;;
23044;SDS011;11690;51.716;23.066;2023-03-01T05:27:34;54.63;;;26.77;;
23044;SDS011;11690;51.716;23.066;2023-03-01T05:30:02;54.33;;;26.40;;
23044;SDS011;11690;51.716;23.066;2023-03-01T05:32:40;62.13;;;27.27;;
23044;SDS011;11690;51.716;23.066;2023-03-01T05:35:16;61.20;;;28.23;;
23044;SDS011;11690;51.716;23.066;2023-03-01T05:37:44;50.70;;;23.60;;
23044;SDS011;11690;51.716;23.066;2023-03-01T05:40:14;58.13;;;28.20;;
23044;SDS011;11690;51.716;23.066;2023-03-01T05:42:43;56.20;;;28.33;;
23044;SDS011;11690;51.716;23.066;2023-03-01T05:45:11;55.83;;;23.93;;
23044;SDS011;11690;51.716;23.066;2023-03-01T05:47:39;58.53;;;26.57;;
23044;SDS011;11690;51.716;23.066;2023-03-01T05:50:14;52.73;;;26.03;;
23044;SDS011;11690;51.716;23.066;2023-03-01T05:52:46;57.23;;;24.20;;
23044;SDS011;11690;51.716;23.066;2023-03-01T05:55:16;44.63;;;23.30;;
23044;SDS011;11690;51.716;23.066;2023-03-01T05:57:44;47.67;;;22.23;;
23044;SDS011;11690;51.716;23.066;2023-03-01T06:00:12;57.90;;;27.20;;
23044;SDS011;11690;51.716;23.066;2023-03-01T06:02:40;57.27;;;27.47;;
23044;SDS011;11690;51.716;23.066;2023-03-01T06:05:08;66.77;;;29.10;;
23044;SDS011;11690;51.716;23.066;2023-03-01T06:07:36;59.87;;;27.97;;
23044;SDS011;11690;51.716;23.066;2023-03-01T06:10:04;64.23;;;29.27;;
23044;SDS011;11690;51.716;23.066;2023-03-01T06:12:36;58.87;;;25.70;;
23044;SDS011;11690;51.716;23.066;2023-03-01T06:15:04;52.87;;;26.40;;
23044;SDS011;11690;51.716;23.066;2023-03-01T06:17:33;61.23;;;28.23;;
23044;SDS011;11690;51.716;23.066;2023-03-01T06:20:05;71.23;;;32.13;;
23044;SDS011;11690;51.716;23.066;2023-03-01T06:22:34;68.30;;;29.90;;
23044;SDS011;11690;51.716;23.066;2023-03-01T06:25:01;71.80;;;34.80;;
23044;SDS011;11690;51.716;23.066;2023-03-01T06:27:28;57.43;;;28.33;;
23044;SDS011;11690;51.716;23.066;2023-03-01T06:29:56;61.33;;;28.63;;
23044;SDS011;11690;51.716;23.066;2023-03-01T06:32:23;62.70;;;29.30;;
23044;SDS011;11690;51.716;23.066;2023-03-01T06:34:50;72.03;;;31.23;;
23044;SDS011;11690;51.716;23.066;2023-03-01T06:37:17;66.43;;;31.43;;
23044;SDS011;11690;51.716;23.066;2023-03-01T06:39:45;60.57;;;28.27;;
23044;SDS011;11690;51.716;23.066;2023-03-01T06:42:12;78.40;;;33.17;;
23044;SDS011;11690;51.716;23.066;2023-03-01T06:44:39;64.00;;;30.63;;
23044;SDS011;11690;51.716;23.066;2023-03-01T06:47:06;59.87;;;29.73;;
23044;SDS011;11690;51.716;23.066;2023-03-01T06:49:33;59.40;;;27.17;;
23044;SDS011;11690;51.716;23.066;2023-03-01T06:52:00;68.73;;;29.80;;
23044;SDS011;11690;51.716;23.066;2023-03-01T06:54:27;58.10;;;29.30;;
23044;SDS011;11690;51.716;23.066;2023-03-01T06:56:55;71.20;;;33.90;;
23044;SDS011;11690;51.716;23.066;2023-03-01T06:59:22;62.63;;;31.57;;
23044;SDS011;11690;51.716;23.066;2023-03-01T07:01:49;67.63;;;29.53;;
23044;SDS011;11690;51.716;23.066;2023-03-01T07:04:16;77.47;;;35.00;;
23044;SDS011;11690;51.716;23.066;2023-03-01T07:06:43;62.53;;;28.67;;
23044;SDS011;11690;51.716;23.066;2023-03-01T07:09:10;74.33;;;33.47;;
23044;SDS011;11690;51.716;23.066;2023-03-01T07:11:37;69.20;;;35.00;;
23044;SDS011;11690;51.716;23.066;2023-03-01T07:14:05;66.73;;;31.13;;
23044;SDS011;11690;51.716;23.066;2023-03-01T07:16:33;68.90;;;34.30;;
23044;SDS011;11690;51.716;23.066;2023-03-01T07:19:01;65.00;;;32.63;;
23044;SDS011;11690;51.716;23.066;2023-03-01T07:21:28;68.67;;;32.50;;
23044;SDS011;11690;51.716;23.066;2023-03-01T07:23:55;70.73;;;33.93;;
23044;SDS011;11690;51.716;23.066;2023-03-01T07:26:22;62.30;;;31.23;;
23044;SDS011;11690;51.716;23.066;2023-03-01T07:28:52;62.00;;;28.50;;
23044;SDS011;11690;51.716;23.066;2023-03-01T07:31:19;57.17;;;28.90;;
23044;SDS011;11690;51.716;23.066;2023-03-01T07:33:46;63.43;;;30.83;;
23044;SDS011;11690;51.716;23.066;2023-03-01T07:36:13;62.23;;;28.07;;
23044;SDS011;11690;51.716;23.066;2023-03-01T07:38:40;71.47;;;32.10;;
23044;SDS011;11690;51.716;23.066;2023-03-01T07:41:07;62.23;;;32.13;;
23044;SDS011;11690;51.716;23.066;2023-03-01T07:43:35;63.40;;;32.60;;
23044;SDS011;11690;51.716;23.066;2023-03-01T07:46:02;64.57;;;29.60;;
23044;SDS011;11690;51.716;23.066;2023-03-01T07:48:30;57.17;;;30.77;;
23044;SDS011;11690;51.716;23.066;2023-03-01T07:51:01;61.10;;;28.80;;
23044;SDS011;11690;51.716;23.066;2023-03-01T07:53:30;64.10;;;31.50;;
23044;SDS011;11690;51.716;23.066;2023-03-01T07:56:01;65.33;;;30.43;;
23044;SDS011;11690;51.716;23.066;2023-03-01T07:58:30;63.43;;;29.27;;
23044;SDS011;11690;51.716;23.066;2023-03-01T08:01:00;60.37;;;29.90;;
23044;SDS011;11690;51.716;23.066;2023-03-01T08:03:32;55.23;;;29.80;;
23044;SDS011;11690;51.716;23.066;2023-03-01T08:06:00;60.40;;;29.87;;
23044;SDS011;11690;51.716;23.066;2023-03-01T08:08:27;58.97;;;30.47;;
23044;SDS011;11690;51.716;23.066;2023-03-01T08:10:58;60.23;;;29.40;;
23044;SDS011;11690;51.716;23.066;2023-03-01T08:13:26;62.50;;;29.10;;
23044;SDS011;11690;51.716;23.066;2023-03-01T08:15:53;60.10;;;30.17;;
23044;SDS011;11690;51.716;23.066;2023-03-01T08:18:20;61.57;;;30.30;;
23044;SDS011;11690;51.716;23.066;2023-03-01T08:20:48;61.27;;;30.00;;
23044;SDS011;11690;51.716;23.066;2023-03-01T08:23:15;56.10;;;28.37;;
23044;SDS011;11690;51.716;23.066;2023-03-01T08:25:42;60.37;;;29.87;;
23044;SDS011;11690;51.716;23.066;2023-03-01T08:28:09;63.77;;;31.03;;
23044;SDS011;11690;51.716;23.066;2023-03-01T08:30:36;61.40;;;31.67;;
23044;SDS011;11690;51.716;23.066;2023-03-01T08:33:04;62.00;;;28.90;;
23044;SDS011;11690;51.716;23.066;2023-03-01T08:35:31;63.20;;;31.13;;
23044;SDS011;11690;51.716;23.066;2023-03-01T08:37:58;65.03;;;30.83;;
23044;SDS011;11690;51.716;23.066;2023-03-01T08:40:25;65.13;;;31.07;;
23044;SDS011;11690;51.716;23.066;2023-03-01T08:42:52;64.43;;;31.73;;
23044;SDS011;11690;51.716;23.066;2023-03-01T08:45:19;62.30;;;30.43;;
23044;SDS011;11690;51.716;23.066;2023-03-01T08:47:46;67.13;;;32.10;;
23044;SDS011;11690;51.716;23.066;2023-03-01T08:50:13;64.83;;;30.40;;
23044;SDS011;11690;51.716;23.066;2023-03-01T08:52:41;58.57;;;27.10;;
23044;SDS011;11690;51.716;23.066;2023-03-01T08:55:08;69.30;;;31.57;;
23044;SDS011;11690;51.716;23.066;2023-03-01T08:57:35;69.67;;;33.33;;
23044;SDS011;11690;51.716;23.066;2023-03-01T09:00:02;70.03;;;29.97;;
23044;SDS011;11690;51.716;23.066;2023-03-01T09:02:34;62.47;;;31.20;;
23044;SDS011;11690;51.716;23.066;2023-03-01T09:05:01;64.60;;;32.53;;
23044;SDS011;11690;51.716;23.066;2023-03-01T09:07:29;61.00;;;30.50;;
23044;SDS011;11690;51.716;23.066;2023-03-01T09:09:56;71.13;;;33.73;;
23044;SDS011;11690;51.716;23.066;2023-03-01T09:12:23;58.73;;;30.17;;
23044;SDS011;11690;51.716;23.066;2023-03-01T09:14:51;80.93;;;35.67;;
23044;SDS011;11690;51.716;23.066;2023-03-01T09:17:18;74.43;;;33.00;;
23044;SDS011;11690;51.716;23.066;2023-03-01T09:19:48;61.33;;;30.17;;
23044;SDS011;11690;51.716;23.066;2023-03-01T09:22:16;72.70;;;31.60;;
23044;SDS011;11690;51.716;23.066;2023-03-01T09:24:43;62.73;;;30.60;;
23044;SDS011;11690;51.716;23.066;2023-03-01T09:27:10;63.30;;;31.43;;
23044;SDS011;11690;51.716;23.066;2023-03-01T09:29:39;61.93;;;30.47;;
23044;SDS011;11690;51.716;23.066;2023-03-01T09:32:06;64.00;;;30.77;;
23044;SDS011;11690;51.716;23.066;2023-03-01T09:34:35;61.33;;;29.43;;
23044;SDS011;11690;51.716;23.066;2023-03-01T09:37:22;70.50;;;30.90;;
23044;SDS011;11690;51.716;23.066;2023-03-01T09:39:49;65.43;;;30.60;;
23044;SDS011;11690;51.716;23.066;2023-03-01T09:42:16;59.13;;;29.37;;
23044;SDS011;11690;51.716;23.066;2023-03-01T09:44:48;64.37;;;30.77;;
23044;SDS011;11690;51.716;23.066;2023-03-01T09:47:25;60.27;;;30.43;;
23044;SDS011;11690;51.716;23.066;2023-03-01T09:50:14;68.53;;;31.53;;
23044;SDS011;11690;51.716;23.066;2023-03-01T09:55:31;57.83;;;28.60;;
23044;SDS011;11690;51.716;23.066;2023-03-01T10:00:51;53.77;;;27.87;;
23044;SDS011;11690;51.716;23.066;2023-03-01T10:03:25;51.60;;;25.90;;
23044;SDS011;11690;51.716;23.066;2023-03-01T10:08:52;61.93;;;27.73;;
23044;SDS011;11690;51.716;23.066;2023-03-01T10:11:22;56.97;;;27.17;;
23044;SDS011;11690;51.716;23.066;2023-03-01T10:16:43;52.13;;;23.77;;
23044;SDS011;11690;51.716;23.066;2023-03-01T10:19:27;52.90;;;25.50;;
23044;SDS011;11690;51.716;23.066;2023-03-01T10:22:02;55.13;;;26.83;;
23044;SDS011;11690;51.716;23.066;2023-03-01T10:24:32;55.30;;;27.53;;
23044;SDS011;11690;51.716;23.066;2023-03-01T10:27:02;49.10;;;25.73;;
23044;SDS011;11690;51.716;23.066;2023-03-01T10:32:45;51.23;;;27.47;;
23044;SDS011;11690;51.716;23.066;2023-03-01T10:35:23;56.43;;;27.50;;
23044;SDS011;11690;51.716;23.066;2023-03-01T10:38:05;50.20;;;26.77;;
23044;SDS011;11690;51.716;23.066;2023-03-01T10:40:34;58.90;;;30.03;;
23044;SDS011;11690;51.716;23.066;2023-03-01T10:43:10;64.80;;;31.20;;
23044;SDS011;11690;51.716;23.066;2023-03-01T10:45:39;57.10;;;27.70;;
23044;SDS011;11690;51.716;23.066;2023-03-01T10:48:39;56.53;;;29.77;;
23044;SDS011;11690;51.716;23.066;2023-03-01T10:55:56;52.73;;;25.60;;
23044;SDS011;11690;51.716;23.066;2023-03-01T10:58:28;50.23;;;26.57;;
23044;SDS011;11690;51.716;23.066;2023-03-01T11:00:57;63.97;;;30.97;;
23044;SDS011;11690;51.716;23.066;2023-03-01T11:03:33;54.30;;;27.57;;
23044;SDS011;11690;51.716;23.066;2023-03-01T11:08:36;48.03;;;26.30;;
23044;SDS011;11690;51.716;23.066;2023-03-01T11:11:06;54.70;;;26.47;;
23044;SDS011;11690;51.716;23.066;2023-03-01T11:13:33;50.13;;;26.30;;
23044;SDS011;11690;51.716;23.066;2023-03-01T11:16:07;45.70;;;23.60;;
23044;SDS011;11690;51.716;23.066;2023-03-01T11:18:37;43.87;;;24.07;;
23044;SDS011;11690;51.716;23.066;2023-03-01T11:21:15;42.20;;;22.83;;
23044;SDS011;11690;51.716;23.066;2023-03-01T11:23:43;43.23;;;24.60;;
23044;SDS011;11690;51.716;23.066;2023-03-01T11:26:12;47.90;;;24.23;;
23044;SDS011;11690;51.716;23.066;2023-03-01T11:28:40;44.67;;;24.27;;
23044;SDS011;11690;51.716;23.066;2023-03-01T11:31:09;47.47;;;23.40;;
23044;SDS011;11690;51.716;23.066;2023-03-01T11:33:46;47.60;;;24.50;;
23044;SDS011;11690;51.716;23.066;2023-03-01T11:39:05;47.10;;;22.50;;
23044;SDS011;11690;51.716;23.066;2023-03-01T11:42:02;48.37;;;22.90;;
23044;SDS011;11690;51.716;23.066;2023-03-01T11:44:46;48.13;;;23.60;;
23044;SDS011;11690;51.716;23.066;2023-03-01T11:50:19;42.40;;;23.90;;
23044;SDS011;11690;51.716;23.066;2023-03-01T11:55:57;49.33;;;25.13;;
23044;SDS011;11690;51.716;23.066;2023-03-01T11:58:36;46.20;;;24.57;;
23044;SDS011;11690;51.716;23.066;2023-03-01T12:17:48;47.60;;;22.40;;
23044;SDS011;11690;51.716;23.066;2023-03-01T12:28:52;41.77;;;21.33;;
23044;SDS011;11690;51.716;23.066;2023-03-01T12:31:32;40.17;;;20.40;;
23044;SDS011;11690;51.716;23.066;2023-03-01T12:51:15;40.83;;;21.97;;
23044;SDS011;11690;51.716;23.066;2023-03-01T12:53:49;41.47;;;23.00;;
23044;SDS011;11690;51.716;23.066;2023-03-01T12:56:24;41.67;;;22.13;;
23044;SDS011;11690;51.716;23.066;2023-03-01T13:15:48;39.03;;;21.80;;
23044;SDS011;11690;51.716;23.066;2023-03-01T13:20:50;50.97;;;22.50;;
23044;SDS011;11690;51.716;23.066;2023-03-01T13:46:56;48.33;;;23.20;;
23044;SDS011;11690;51.716;23.066;2023-03-01T13:49:27;44.13;;;22.87;;
23044;SDS011;11690;51.716;23.066;2023-03-01T13:55:17;45.27;;;23.10;;
23044;SDS011;11690;51.716;23.066;2023-03-01T13:57:50;43.00;;;22.53;;
23044;SDS011;11690;51.716;23.066;2023-03-01T14:03:01;44.73;;;23.77;;
23044;SDS011;11690;51.716;23.066;2023-03-01T14:05:32;44.50;;;23.60;;
23044;SDS011;11690;51.716;23.066;2023-03-01T14:08:00;40.90;;;22.57;;
23044;SDS011;11690;51.716;23.066;2023-03-01T14:10:30;42.87;;;24.07;;
23044;SDS011;11690;51.716;23.066;2023-03-01T14:13:09;44.67;;;23.93;;
23044;SDS011;11690;51.716;23.066;2023-03-01T14:18:47;47.73;;;25.17;;
23044;SDS011;11690;51.716;23.066;2023-03-01T14:21:21;46.47;;;24.03;;
23044;SDS011;11690;51.716;23.066;2023-03-01T14:23:49;45.03;;;23.33;;
23044;SDS011;11690;51.716;23.066;2023-03-01T14:26:20;46.33;;;25.23;;
23044;SDS011;11690;51.716;23.066;2023-03-01T14:28:49;45.03;;;24.60;;
23044;SDS011;11690;51.716;23.066;2023-03-01T14:31:34;49.40;;;24.20;;
23044;SDS011;11690;51.716;23.066;2023-03-01T14:34:21;47.50;;;24.13;;
23044;SDS011;11690;51.716;23.066;2023-03-01T14:36:50;43.37;;;23.87;;
23044;SDS011;11690;51.716;23.066;2023-03-01T14:39:27;50.40;;;24.83;;
23044;SDS011;11690;51.716;23.066;2023-03-01T14:41:54;45.63;;;24.30;;
23044;SDS011;11690;51.716;23.066;2023-03-01T14:44:24;62.37;;;27.83;;
23044;SDS011;11690;51.716;23.066;2023-03-01T14:46:55;44.67;;;25.03;;
23044;SDS011;11690;51.716;23.066;2023-03-01T14:49:25;47.23;;;23.73;;
23044;SDS011;11690;51.716;23.066;2023-03-01T14:51:57;49.60;;;24.83;;
23044;SDS011;11690;51.716;23.066;2023-03-01T14:54:31;50.37;;;24.67;;
23044;SDS011;11690;51.716;23.066;2023-03-01T14:57:17;47.63;;;25.47;;
23044;SDS011;11690;51.716;23.066;2023-03-01T14:59:51;51.27;;;27.60;;
23044;SDS011;11690;51.716;23.066;2023-03-01T15:02:24;59.70;;;28.53;;
23044;SDS011;11690;51.716;23.066;2023-03-01T15:04:55;59.50;;;28.87;;
23044;SDS011;11690;51.716;23.066;2023-03-01T15:07:31;93.83;;;35.30;;
23044;SDS011;11690;51.716;23.066;2023-03-01T15:10:04;59.67;;;32.07;;
23044;SDS011;11690;51.716;23.066;2023-03-01T15:12:38;53.03;;;28.60;;
23044;SDS011;11690;51.716;23.066;2023-03-01T15:15:20;59.77;;;29.90;;
23044;SDS011;11690;51.716;23.066;2023-03-01T15:17:52;50.70;;;26.43;;
23044;SDS011;11690;51.716;23.066;2023-03-01T15:20:26;54.07;;;27.83;;
23044;SDS011;11690;51.716;23.066;2023-03-01T15:22:56;51.77;;;26.60;;
23044;SDS011;11690;51.716;23.066;2023-03-01T15:25:25;47.63;;;25.97;;
23044;SDS011;11690;51.716;23.066;2023-03-01T15:27:55;46.63;;;25.20;;
23044;SDS011;11690;51.716;23.066;2023-03-01T15:30:25;52.00;;;26.40;;
23044;SDS011;11690;51.716;23.066;2023-03-01T15:35:49;49.30;;;26.17;;
23044;SDS011;11690;51.716;23.066;2023-03-01T15:38:24;48.50;;;26.37;;
23044;SDS011;11690;51.716;23.066;2023-03-01T15:40:54;48.40;;;26.10;;
23044;SDS011;11690;51.716;23.066;2023-03-01T15:46:44;73.23;;;40.07;;
23044;SDS011;11690;51.716;23.066;2023-03-01T15:49:03;57.47;;;29.90;;
23044;SDS011;11690;51.716;23.066;2023-03-01T15:51:33;52.80;;;27.27;;
23044;SDS011;11690;51.716;23.066;2023-03-01T15:54:04;53.57;;;26.93;;
23044;SDS011;11690;51.716;23.066;2023-03-01T15:56:33;64.43;;;28.73;;
23044;SDS011;11690;51.716;23.066;2023-03-01T15:59:01;63.20;;;30.40;;
23044;SDS011;11690;51.716;23.066;2023-03-01T16:01:30;61.17;;;30.10;;
23044;SDS011;11690;51.716;23.066;2023-03-01T16:04:01;84.47;;;37.47;;
23044;SDS011;11690;51.716;23.066;2023-03-01T16:06:29;112.37;;;45.00;;
23044;SDS011;11690;51.716;23.066;2023-03-01T16:08:57;103.23;;;40.53;;
23044;SDS011;11690;51.716;23.066;2023-03-01T16:11:25;102.50;;;41.17;;
23044;SDS011;11690;51.716;23.066;2023-03-01T16:13:53;105.67;;;45.23;;
23044;SDS011;11690;51.716;23.066;2023-03-01T16:16:21;175.50;;;88.03;;
23044;SDS011;11690;51.716;23.066;2023-03-01T16:18:50;158.20;;;83.03;;
23044;SDS011;11690;51.716;23.066;2023-03-01T16:21:23;223.93;;;71.20;;
23044;SDS011;11690;51.716;23.066;2023-03-01T16:23:52;285.60;;;100.93;;
23044;SDS011;11690;51.716;23.066;2023-03-01T16:26:20;110.30;;;46.23;;
23044;SDS011;11690;51.716;23.066;2023-03-01T16:28:48;71.73;;;34.90;;
23044;SDS011;11690;51.716;23.066;2023-03-01T16:31:18;74.63;;;33.10;;
23044;SDS011;11690;51.716;23.066;2023-03-01T16:33:47;59.03;;;28.33;;
23044;SDS011;11690;51.716;23.066;2023-03-01T16:36:18;57.03;;;27.43;;
23044;SDS011;11690;51.716;23.066;2023-03-01T16:38:51;59.27;;;29.50;;
23044;SDS011;11690;51.716;23.066;2023-03-01T16:41:20;70.03;;;31.97;;
23044;SDS011;11690;51.716;23.066;2023-03-01T16:43:49;92.50;;;36.70;;
23044;SDS011;11690;51.716;23.066;2023-03-01T16:46:22;264.40;;;78.03;;
23044;SDS011;11690;51.716;23.066;2023-03-01T16:48:52;269.50;;;76.97;;
23044;SDS011;11690;51.716;23.066;2023-03-01T16:51:22;372.40;;;101.40;;